Time;durP1;ratioP1;P1;durP2;ratioP2;P2;SDS_P1;SDS_P2;PMS_P1;PMS_P2;Temp;Humidity;BMP_temperature;BMP_pressure;BME280_temperature;BME280_humidity;BME280_pressure;Samples;Min_cycle;Max_cycle;Signal;HPM_P1;HPM_P2
2021/07/03 00:01:14;;;;;;;15.23;6.22;;;;;;;17.67;100.00;99705.75;1757229;81;20990;-85
2021/07/03 00:03:40;;;;;;;13.32;5.53;;;;;;;17.63;100.00;99706.22;1724277;81;20896;-85
2021/07/03 00:06:07;;;;;;;13.75;7.22;;;;;;;17.62;100.00;99705.39;1723319;83;21022;-84
2021/07/03 00:08:35;;;;;;;15.45;6.72;;;;;;;17.60;100.00;99711.84;1719982;82;21027;-85
2021/07/03 00:11:03;;;;;;;12.55;6.22;;;;;;;17.58;100.00;99714.16;1726840;81;21046;-84
2021/07/03 00:13:32;;;;;;;14.33;5.47;;;;;;;17.58;100.00;99716.92;1753449;81;21382;-84
2021/07/03 00:15:58;;;;;;;9.75;4.67;;;;;;;17.57;100.00;99720.02;1753292;81;21035;-84
2021/07/03 00:18:26;;;;;;;10.43;4.75;;;;;;;17.57;100.00;99718.64;1722018;81;21031;-85
2021/07/03 00:20:53;;;;;;;9.75;4.75;;;;;;;17.55;100.00;99716.20;1730574;82;20975;-85
2021/07/03 00:23:19;;;;;;;14.50;4.65;;;;;;;17.56;100.00;99719.80;1757255;81;21006;-84
2021/07/03 00:25:46;;;;;;;17.55;4.53;;;;;;;17.53;100.00;99719.08;1747463;81;21003;-85
2021/07/03 00:28:12;;;;;;;8.43;4.10;;;;;;;17.51;100.00;99716.68;1757020;81;21061;-84
2021/07/03 00:30:38;;;;;;;14.00;4.65;;;;;;;17.51;100.00;99718.64;1747338;81;21010;-85
2021/07/03 00:33:06;;;;;;;9.73;3.85;;;;;;;17.50;100.00;99709.53;1757116;81;21365;-84
2021/07/03 00:35:33;;;;;;;18.02;4.55;;;;;;;17.51;100.00;99716.68;1747453;81;21476;-85
2021/07/03 00:37:59;;;;;;;7.33;4.12;;;;;;;17.50;100.00;99717.81;1757036;81;21002;-85
2021/07/03 00:40:28;;;;;;;11.85;5.33;;;;;;;17.50;100.00;99719.20;1731340;81;20998;-85
2021/07/03 00:42:55;;;;;;;16.07;6.65;;;;;;;17.49;100.00;99718.98;1723624;83;21539;-84
2021/07/03 00:45:22;;;;;;;14.07;5.58;;;;;;;17.45;100.00;99718.04;1719911;82;21035;-85
2021/07/03 00:47:50;;;;;;;8.95;4.45;;;;;;;17.43;100.00;99709.29;1726616;83;21530;-84
2021/07/03 00:50:19;;;;;;;10.15;4.22;;;;;;;17.39;100.00;99711.14;1723366;81;21039;-84
2021/07/03 00:52:46;;;;;;;10.72;4.80;;;;;;;17.38;100.00;99716.41;1722115;82;20968;-84
2021/07/03 00:55:16;;;;;;;8.75;3.60;;;;;;;17.34;100.00;99711.37;1735549;82;21020;-84
2021/07/03 00:57:43;;;;;;;12.10;5.03;;;;;;;17.32;100.00;99720.56;1756850;81;21649;-84
2021/07/03 01:00:10;;;;;;;10.63;4.00;;;;;;;17.28;100.00;99710.76;1753380;81;21062;-84
2021/07/03 01:02:38;;;;;;;8.10;3.50;;;;;;;17.26;100.00;99712.25;1718629;82;21076;-84
2021/07/03 01:05:07;;;;;;;6.60;3.35;;;;;;;17.24;100.00;99722.28;1750897;81;20976;-84
2021/07/03 01:07:34;;;;;;;11.80;3.90;;;;;;;17.22;100.00;99718.25;1747677;82;21022;-84
2021/07/03 01:10:01;;;;;;;7.47;3.42;;;;;;;17.20;100.00;99710.30;1757061;81;21037;-84
2021/07/03 01:12:28;;;;;;;10.03;4.33;;;;;;;17.18;100.00;99712.03;1722446;82;21085;-84
2021/07/03 01:14:54;;;;;;;7.00;3.58;;;;;;;17.16;100.00;99710.19;1744248;82;21034;-84
2021/07/03 01:17:23;;;;;;;8.18;2.95;;;;;;;17.14;100.00;99706.95;1743408;81;20990;-84
2021/07/03 01:19:51;;;;;;;6.55;3.60;;;;;;;17.12;100.00;99708.44;1727302;83;21444;-84
2021/07/03 01:22:19;;;;;;;5.10;2.70;;;;;;;17.11;100.00;99708.19;1751042;81;21033;-84
2021/07/03 01:24:46;;;;;;;5.22;3.08;;;;;;;17.06;100.00;99702.34;1727060;81;21480;-85
2021/07/03 01:27:16;;;;;;;3.92;2.67;;;;;;;17.03;100.00;99707.14;1739042;81;21010;-84
2021/07/03 01:29:44;;;;;;;5.78;3.00;;;;;;;16.97;100.00;99705.76;1726303;81;21015;-84
2021/07/03 01:32:12;;;;;;;6.95;3.37;;;;;;;16.92;100.00;99706.77;1753443;81;21435;-85
2021/07/03 01:34:39;;;;;;;6.10;3.20;;;;;;;16.90;100.00;99711.02;1753601;81;21354;-84
2021/07/03 01:37:07;;;;;;;6.80;2.77;;;;;;;16.87;100.00;99706.19;1769163;80;21467;-84
2021/07/03 01:39:36;;;;;;;7.70;4.17;;;;;;;16.82;100.00;99707.78;1750350;80;21024;-85
2021/07/03 01:42:04;;;;;;;4.20;2.12;;;;;;;16.75;100.00;99702.19;1717188;83;20923;-84
2021/07/03 01:44:33;;;;;;;3.92;2.42;;;;;;;16.68;100.00;99706.06;1687157;83;21063;-85
2021/07/03 01:47:00;;;;;;;4.72;2.55;;;;;;;16.63;100.00;99702.14;1737661;81;21457;-85
2021/07/03 01:49:38;;;;;;;4.97;2.62;;;;;;;16.59;100.00;99699.81;1753911;80;21028;-84
2021/07/03 01:52:07;;;;;;;4.25;3.25;;;;;;;16.54;100.00;99703.61;1721593;83;21386;-84
2021/07/03 01:54:35;;;;;;;5.05;2.85;;;;;;;16.50;100.00;99706.00;1689976;82;21005;-84
2021/07/03 01:57:04;;;;;;;6.25;3.02;;;;;;;16.47;100.00;99704.72;1778026;80;20987;-84
2021/07/03 01:59:38;;;;;;;6.75;2.80;;;;;;;16.45;100.00;99706.20;1743097;82;20982;-84
2021/07/03 02:02:07;;;;;;;5.97;2.60;;;;;;;16.41;100.00;99703.30;1744168;82;21463;-84
2021/07/03 02:04:35;;;;;;;5.72;3.52;;;;;;;16.41;100.00;99709.39;1746180;81;20982;-84
2021/07/03 02:07:03;;;;;;;5.55;2.70;;;;;;;16.40;100.00;99709.97;1750171;81;20884;-84
2021/07/03 02:09:31;;;;;;;9.28;2.60;;;;;;;16.36;100.00;99713.73;1771721;81;21442;-84
2021/07/03 02:11:59;;;;;;;4.85;2.12;;;;;;;16.35;100.00;99717.06;1752854;81;21444;-84
2021/07/03 02:14:27;;;;;;;8.00;1.80;;;;;;;16.32;100.00;99713.03;1749561;81;21027;-84
2021/07/03 02:16:59;;;;;;;3.35;1.80;;;;;;;16.33;100.00;99720.14;1743898;81;21042;-84
2021/07/03 02:19:29;;;;;;;6.60;2.60;;;;;;;16.32;100.00;99721.30;1744569;81;20955;-84
2021/07/03 02:21:55;;;;;;;6.75;2.40;;;;;;;16.32;100.00;99724.05;1746170;82;21015;-84
2021/07/03 02:24:24;;;;;;;3.12;2.27;;;;;;;16.33;100.00;99723.48;1724977;81;21043;-84
2021/07/03 02:26:51;;;;;;;1.82;1.27;;;;;;;16.32;100.00;99723.25;1723426;83;21062;-84
2021/07/03 02:29:18;;;;;;;2.75;1.87;;;;;;;16.33;100.00;99719.34;1720350;83;21029;-84
2021/07/03 02:31:44;;;;;;;2.65;1.67;;;;;;;16.32;100.00;99721.88;1726781;81;20968;-84
2021/07/03 02:34:12;;;;;;;5.00;2.12;;;;;;;16.32;100.00;99719.92;1723730;81;21529;-84
2021/07/03 02:36:39;;;;;;;3.42;1.92;;;;;;;16.33;100.00;99728.41;1721764;83;21035;-84
2021/07/03 02:39:07;;;;;;;4.45;2.67;;;;;;;16.36;100.00;99727.52;1715721;83;21991;-85
2021/07/03 02:41:36;;;;;;;5.95;2.35;;;;;;;16.39;100.00;99720.74;1737861;81;21014;-85
2021/07/03 02:44:04;;;;;;;3.10;2.80;;;;;;;16.39;100.00;99725.45;1753635;80;20999;-85
2021/07/03 02:46:31;;;;;;;5.87;2.90;;;;;;;16.40;100.00;99722.95;1721778;83;20992;-85
2021/07/03 02:48:57;;;;;;;3.25;2.25;;;;;;;16.42;100.00;99718.72;1715467;83;20982;-85
2021/07/03 02:51:24;;;;;;;2.58;1.87;;;;;;;16.48;100.00;99711.84;1748845;81;21026;-84
2021/07/03 02:53:52;;;;;;;3.22;2.15;;;;;;;16.57;100.00;99717.30;1751417;81;21005;-85
2021/07/03 02:56:19;;;;;;;7.28;3.75;;;;;;;16.66;100.00;99717.20;1770807;81;21001;-85
2021/07/03 02:58:46;;;;;;;3.52;2.65;;;;;;;16.75;100.00;99727.02;1742588;81;21431;-85
2021/07/03 03:01:13;;;;;;;3.95;2.77;;;;;;;16.85;100.00;99723.07;1738636;81;21020;-85
2021/07/03 03:03:43;;;;;;;2.02;1.82;;;;;;;16.93;100.00;99726.89;1728216;82;21067;-85
2021/07/03 03:06:13;;;;;;;3.22;2.20;;;;;;;16.99;100.00;99721.41;1698060;83;21053;-85
2021/07/03 03:08:40;;;;;;;3.75;2.40;;;;;;;17.10;100.00;99725.33;1731346;82;21445;-85
2021/07/03 03:11:07;;;;;;;5.83;3.05;;;;;;;17.25;100.00;99727.22;1753530;81;21054;-85
2021/07/03 03:13:35;;;;;;;4.80;2.83;;;;;;;17.38;100.00;99728.84;1717436;81;21005;-85
2021/07/03 03:16:03;;;;;;;5.25;2.50;;;;;;;17.49;100.00;99728.64;1752725;81;21002;-85
2021/07/03 03:18:31;;;;;;;4.92;2.67;;;;;;;17.59;100.00;99724.05;1741014;81;21654;-85
2021/07/03 03:20:59;;;;;;;4.58;2.27;;;;;;;17.71;100.00;99722.45;1747503;81;20994;-85
2021/07/03 03:23:25;;;;;;;4.22;2.47;;;;;;;17.85;100.00;99718.78;1759843;81;20970;-85
2021/07/03 03:25:52;;;;;;;3.98;2.17;;;;;;;17.99;100.00;99716.47;1747704;82;20994;-85
2021/07/03 03:28:20;;;;;;;4.53;2.72;;;;;;;18.11;100.00;99712.09;1759821;81;21054;-85
2021/07/03 03:30:47;;;;;;;5.12;3.00;;;;;;;18.23;100.00;99711.49;1733582;81;20997;-85
2021/07/03 03:33:15;;;;;;;4.67;2.47;;;;;;;18.35;100.00;99718.97;1747099;82;21009;-85
2021/07/03 03:35:42;;;;;;;5.85;2.33;;;;;;;18.44;100.00;99720.19;1733634;81;21368;-85
2021/07/03 03:38:09;;;;;;;4.75;2.22;;;;;;;18.45;100.00;99718.47;1736388;81;21015;-85
2021/07/03 03:40:37;;;;;;;4.65;2.45;;;;;;;18.50;100.00;99722.16;1701818;83;21011;-85
2021/07/03 03:43:03;;;;;;;4.83;2.87;;;;;;;18.57;100.00;99722.34;1698568;83;21495;-85
2021/07/03 03:45:32;;;;;;;4.90;2.98;;;;;;;18.64;100.00;99725.31;1705500;82;20995;-85
2021/07/03 03:48:00;;;;;;;4.65;3.42;;;;;;;18.73;100.00;99730.13;1754351;81;21476;-85
2021/07/03 03:50:28;;;;;;;3.33;2.45;;;;;;;18.84;100.00;99732.67;1740229;82;21523;-85
2021/07/03 03:52:55;;;;;;;4.58;3.20;;;;;;;18.94;100.00;99722.23;1739957;82;21367;-85
2021/07/03 03:55:22;;;;;;;5.78;2.80;;;;;;;19.06;100.00;99727.70;1707982;82;21055;-85
2021/07/03 03:57:48;;;;;;;3.85;2.37;;;;;;;19.16;100.00;99727.19;1723809;81;20988;-85
2021/07/03 04:00:20;;;;;;;3.27;2.50;;;;;;;19.28;100.00;99727.12;1715018;83;21003;-85
2021/07/03 04:02:48;;;;;;;4.33;2.60;;;;;;;19.39;100.00;99730.19;1722342;83;21059;-85
2021/07/03 04:05:17;;;;;;;4.05;2.87;;;;;;;19.61;100.00;99723.23;1728152;81;21057;-86
2021/07/03 04:07:44;;;;;;;6.00;2.58;;;;;;;19.61;100.00;99723.23;1757076;81;21054;-86
2021/07/03 04:10:15;;;;;;;2.75;1.95;;;;;;;19.73;100.00;99720.39;1717932;81;21042;-86
2021/07/03 04:12:45;;;;;;;3.83;2.45;;;;;;;19.85;100.00;99723.62;1756966;81;21002;-86
2021/07/03 04:15:12;;;;;;;3.52;2.22;;;;;;;19.96;100.00;99728.05;1737087;81;21524;-85
2021/07/03 04:17:39;;;;;;;3.08;2.20;;;;;;;20.06;100.00;99720.56;1720253;83;21429;-85
2021/07/03 04:20:07;;;;;;;3.50;2.60;;;;;;;20.14;100.00;99712.62;1726983;83;20900;-86
2021/07/03 04:22:34;;;;;;;3.40;2.33;;;;;;;20.26;100.00;99713.67;1726884;83;21501;-85
2021/07/03 04:25:01;;;;;;;4.00;2.17;;;;;;;20.37;100.00;99709.14;1775189;80;20950;-85
2021/07/03 04:27:28;;;;;;;3.65;2.50;;;;;;;20.46;100.00;99708.36;1758930;80;20978;-85
2021/07/03 04:29:55;;;;;;;5.78;3.20;;;;;;;20.53;100.00;99707.12;1787880;80;21447;-86
2021/07/03 04:32:21;;;;;;;3.27;2.08;;;;;;;20.64;100.00;99705.98;1787758;80;21006;-85
2021/07/03 04:34:48;;;;;;;7.12;2.95;;;;;;;20.71;100.00;99708.11;1787600;80;20968;-85
2021/07/03 04:37:15;;;;;;;6.22;2.72;;;;;;;20.78;100.00;99704.09;1787525;80;21005;-85
2021/07/03 04:39:41;;;;;;;5.83;2.77;;;;;;;20.85;100.00;99707.60;1787787;80;21488;-86
2021/07/03 04:42:08;;;;;;;3.58;2.60;;;;;;;20.90;100.00;99690.05;1787584;80;20962;-86
2021/07/03 04:44:34;;;;;;;4.05;2.40;;;;;;;20.95;100.00;99695.30;1751500;81;20990;-85
2021/07/03 04:47:01;;;;;;;5.28;2.35;;;;;;;21.07;100.00;99690.73;1747271;82;21006;-85
2021/07/03 04:49:32;;;;;;;5.35;3.05;;;;;;;21.15;100.00;99689.72;1740535;80;21051;-86
2021/07/03 04:51:57;;;;;;;4.42;2.52;;;;;;;21.24;100.00;99686.09;1729782;81;21022;-86
2021/07/03 04:54:23;;;;;;;4.87;3.00;;;;;;;21.32;100.00;99685.66;1742400;81;21031;-86
2021/07/03 04:56:50;;;;;;;2.67;2.20;;;;;;;21.39;100.00;99683.83;1756654;81;21026;-86
2021/07/03 04:59:17;;;;;;;4.75;2.50;;;;;;;21.49;100.00;99683.80;1756748;81;21508;-85
2021/07/03 05:01:44;;;;;;;5.58;2.67;;;;;;;21.54;100.00;99686.26;1756414;81;21081;-86
2021/07/03 05:04:11;;;;;;;5.58;2.67;;;;;;;21.62;100.00;99685.78;1754275;81;20975;-86
2021/07/03 05:06:37;;;;;;;5.67;2.62;;;;;;;21.73;100.00;99683.95;1752008;81;21062;-85
2021/07/03 05:09:03;;;;;;;5.70;3.00;;;;;;;21.84;100.00;99682.75;1757788;81;21055;-86
2021/07/03 05:11:31;;;;;;;5.17;3.22;;;;;;;21.98;100.00;99683.54;1757971;81;21451;-86
2021/07/03 05:13:59;;;;;;;5.22;3.10;;;;;;;22.10;100.00;99681.92;1757871;81;21357;-86
2021/07/03 05:16:26;;;;;;;5.83;2.87;;;;;;;22.22;100.00;99681.73;1728326;81;21052;-86
2021/07/03 05:18:52;;;;;;;3.30;2.90;;;;;;;22.31;100.00;99690.61;1757997;81;21048;-86
2021/07/03 05:21:20;;;;;;;4.53;3.17;;;;;;;22.35;100.00;99685.67;1734538;81;21530;-86
2021/07/03 05:23:47;;;;;;;3.80;2.58;;;;;;;22.45;100.00;99690.00;1728865;81;21053;-86
2021/07/03 05:26:13;;;;;;;5.03;3.02;;;;;;;22.56;100.00;99684.56;1727648;83;21036;-87
2021/07/03 05:28:39;;;;;;;4.17;2.83;;;;;;;22.65;100.00;99692.03;1730541;81;21510;-87
2021/07/03 05:31:05;;;;;;;3.62;2.65;;;;;;;22.69;100.00;99690.08;1757842;81;21056;-87
2021/07/03 05:33:32;;;;;;;6.03;2.95;;;;;;;22.72;100.00;99691.30;1758045;81;21022;-86
2021/07/03 05:36:01;;;;;;;4.05;2.90;;;;;;;22.83;100.00;99688.06;1758209;81;21001;-87
2021/07/03 05:38:27;;;;;;;4.05;3.00;;;;;;;22.91;100.00;99687.55;1757670;81;20993;-87
2021/07/03 05:40:58;;;;;;;3.45;2.90;;;;;;;22.99;100.00;99685.66;1753702;81;20986;-87
2021/07/03 05:43:22;;;;;;;3.95;3.08;;;;;;;23.06;100.00;99689.33;1735693;81;21071;-87
2021/07/03 05:45:48;;;;;;;3.37;2.75;;;;;;;23.10;100.00;99687.38;1757790;81;21499;-87
2021/07/03 05:48:16;;;;;;;6.92;3.50;;;;;;;23.26;100.00;99685.73;1758102;81;21005;-87
2021/07/03 05:50:44;;;;;;;3.12;2.27;;;;;;;23.36;100.00;99683.63;1757812;81;20973;-87
2021/07/03 05:53:11;;;;;;;3.10;2.75;;;;;;;23.41;100.00;99692.24;1759230;80;21046;-87
2021/07/03 05:55:38;;;;;;;3.98;2.75;;;;;;;23.51;100.00;99690.13;1793538;80;21027;-87
2021/07/03 05:58:04;;;;;;;7.75;2.95;;;;;;;23.60;100.00;99689.22;1790301;80;21445;-87
2021/07/03 06:00:32;;;;;;;3.35;2.83;;;;;;;23.58;99.01;99692.98;1761528;81;21565;-86
2021/07/03 06:02:59;;;;;;;4.42;2.27;;;;;;;23.61;99.34;99696.98;1762148;81;20991;-87
2021/07/03 06:05:25;;;;;;;4.87;2.77;;;;;;;23.73;99.25;99693.13;1768555;80;21621;-87
2021/07/03 06:07:52;;;;;;;5.97;3.05;;;;;;;23.80;98.29;99704.34;1793363;79;21009;-87
2021/07/03 06:10:18;;;;;;;4.95;2.87;;;;;;;23.82;96.55;99695.00;1766212;80;21610;-87
2021/07/03 06:12:45;;;;;;;4.05;2.92;;;;;;;23.80;94.68;99694.59;1793262;80;21005;-86
2021/07/03 06:15:14;;;;;;;6.75;3.60;;;;;;;23.82;95.77;99696.40;1790293;79;20949;-89
2021/07/03 06:17:40;;;;;;;4.10;3.30;;;;;;;23.93;95.07;99698.66;1761844;81;20968;-85
2021/07/03 06:20:08;;;;;;;5.42;3.10;;;;;;;23.90;93.46;99702.23;1762392;81;20965;-86
2021/07/03 06:22:37;;;;;;;7.15;3.37;;;;;;;23.81;92.16;99697.56;1761765;81;21395;-86
2021/07/03 06:25:05;;;;;;;4.67;3.08;;;;;;;23.81;93.30;99697.56;1777095;80;20985;-86
2021/07/03 06:27:32;;;;;;;3.12;2.45;;;;;;;23.83;93.17;99697.98;1792992;80;21455;-86
2021/07/03 06:29:58;;;;;;;5.92;3.37;;;;;;;23.92;93.35;99704.04;1793469;79;20978;-86
2021/07/03 06:32:25;;;;;;;5.67;3.00;;;;;;;24.09;95.59;99697.58;1800019;78;21445;-87
2021/07/03 06:34:51;;;;;;;7.37;4.12;;;;;;;24.28;93.77;99700.06;1781492;78;21344;-86
2021/07/03 06:37:19;;;;;;;10.50;4.78;;;;;;;24.41;91.45;99699.95;1792000;80;21041;-86
2021/07/03 06:39:45;;;;;;;11.45;4.72;;;;;;;24.43;90.80;99699.53;1727103;82;21384;-86
2021/07/03 06:42:11;;;;;;;9.43;4.28;;;;;;;24.51;90.83;99708.20;1738148;82;21460;-86
2021/07/03 06:44:38;;;;;;;7.97;4.20;;;;;;;24.57;89.83;99712.81;1731518;81;21010;-86
2021/07/03 06:47:05;;;;;;;10.50;4.90;;;;;;;24.61;88.72;99710.84;1731664;82;21007;-86
2021/07/03 06:49:31;;;;;;;11.35;6.25;;;;;;;24.67;87.37;99710.66;1727176;81;21009;-86
2021/07/03 06:51:58;;;;;;;8.30;4.40;;;;;;;24.64;84.90;99708.05;1740740;82;21022;-87
2021/07/03 06:54:24;;;;;;;10.80;4.67;;;;;;;24.61;85.14;99712.23;1736506;82;21053;-86
2021/07/03 06:56:57;;;;;;;7.60;3.95;;;;;;;24.60;86.65;99712.02;1722116;82;20988;-86
2021/07/03 06:59:19;;;;;;;6.67;3.12;;;;;;;24.70;87.80;99716.05;1700175;83;21436;-86
2021/07/03 07:01:46;;;;;;;9.00;3.80;;;;;;;24.81;87.07;99703.73;1734035;81;21009;-87
2021/07/03 07:04:13;;;;;;;7.72;4.20;;;;;;;24.89;85.71;99708.13;1761332;81;21425;-88
2021/07/03 07:06:39;;;;;;;7.45;4.12;;;;;;;24.97;86.70;99708.16;1753038;81;21014;-87
2021/07/03 07:09:05;;;;;;;5.50;4.37;;;;;;;25.18;88.58;99708.25;1726439;83;21006;-86
2021/07/03 07:11:33;;;;;;;10.80;4.97;;;;;;;25.43;88.98;99711.68;1725642;83;21438;-86
2021/07/03 07:14:00;;;;;;;10.20;4.80;;;;;;;25.58;84.51;99711.87;1739181;81;21036;-87
2021/07/03 07:16:28;;;;;;;8.73;3.83;;;;;;;25.63;83.05;99701.69;1755220;81;20978;-88
2021/07/03 07:18:57;;;;;;;8.50;4.35;;;;;;;;;;1755431;81;21583;-87
2021/07/03 07:21:23;;;;;;;5.75;3.25;;;;;;;25.98;84.63;99707.09;1732443;81;21013;-87
2021/07/03 07:23:50;;;;;;;4.05;2.98;;;;;;;26.09;82.85;99709.28;1726591;81;20933;-87
2021/07/03 07:26:17;;;;;;;4.42;3.42;;;;;;;26.22;83.85;99706.84;1725298;83;21033;-86
2021/07/03 07:28:46;;;;;;;4.72;2.92;;;;;;;26.38;80.58;99704.98;1699601;83;21013;-88
2021/07/03 07:31:13;;;;;;;4.33;2.50;;;;;;;26.34;76.60;99702.21;1750077;81;21013;-88
2021/07/03 07:33:39;;;;;;;3.90;2.58;;;;;;;26.20;74.61;99703.64;1756082;81;21503;-87
2021/07/03 07:36:05;;;;;;;2.42;2.00;;;;;;;26.05;75.63;99697.89;1749465;80;21547;-87
2021/07/03 07:38:32;;;;;;;1.80;1.70;;;;;;;26.09;77.27;99703.68;1726202;81;21005;-86
2021/07/03 07:40:59;;;;;;;2.83;2.25;;;;;;;26.18;77.10;99704.04;1742785;81;20997;-87
2021/07/03 07:43:26;;;;;;;2.87;1.85;;;;;;;26.33;78.62;99699.80;1725508;83;21021;-87
2021/07/03 07:45:55;;;;;;;2.80;2.17;;;;;;;26.50;78.23;99707.34;1725161;83;21308;-87
2021/07/03 07:48:23;;;;;;;3.15;2.52;;;;;;;26.64;76.69;99707.94;1698296;83;21025;-86
2021/07/03 07:50:50;;;;;;;4.15;2.33;;;;;;;26.78;77.69;99712.66;1725456;83;21013;-87
2021/07/03 07:53:17;;;;;;;2.33;1.95;;;;;;;26.95;77.24;99711.80;1725678;82;21060;-86
2021/07/03 07:55:43;;;;;;;2.83;1.87;;;;;;;27.16;77.45;99712.88;1733985;80;21036;-85
2021/07/03 07:58:09;;;;;;;2.40;1.90;;;;;;;27.33;76.54;99716.20;1738297;82;21000;-85
2021/07/03 08:00:36;;;;;;;2.98;2.00;;;;;;;27.38;71.40;99722.77;1723975;82;21013;-85
2021/07/03 08:03:03;;;;;;;3.22;2.42;;;;;;;27.26;71.33;99732.28;1777115;80;21437;-88
2021/07/03 08:05:30;;;;;;;3.15;2.25;;;;;;;27.22;72.97;99721.06;1777320;80;20984;-87
2021/07/03 08:07:57;;;;;;;2.17;1.90;;;;;;;27.24;73.60;99731.28;1760286;80;21003;-86
2021/07/03 08:10:27;;;;;;;2.25;1.92;;;;;;;27.18;69.71;99729.52;1737978;81;21026;-86
2021/07/03 08:12:52;;;;;;;2.62;2.20;;;;;;;27.00;70.62;99725.97;1776868;80;21004;-87
2021/07/03 08:15:18;;;;;;;3.15;2.20;;;;;;;26.97;72.27;99733.80;1743377;80;21003;-87
2021/07/03 08:17:45;;;;;;;3.02;2.52;;;;;;;27.07;72.55;99727.95;1730229;81;21456;-88
2021/07/03 08:20:16;;;;;;;3.12;2.67;;;;;;;27.20;70.19;99737.50;1776527;80;20980;-86
2021/07/03 08:22:44;;;;;;;3.58;2.30;;;;;;;27.25;67.98;99741.30;1778467;80;21003;-87
2021/07/03 08:25:11;;;;;;;4.40;2.50;;;;;;;27.23;68.67;99740.30;1777829;80;21051;-87
2021/07/03 08:27:38;;;;;;;2.83;2.50;;;;;;;27.28;68.65;99741.87;1760594;81;21050;-85
2021/07/03 08:30:06;;;;;;;3.20;2.62;;;;;;;27.29;68.07;99739.86;1772718;80;21056;-87
2021/07/03 08:32:32;;;;;;;3.52;2.58;;;;;;;27.36;68.70;99737.81;1735174;81;21014;-85
2021/07/03 08:34:59;;;;;;;3.52;3.00;;;;;;;27.49;69.43;99735.92;1746381;82;21007;-86
2021/07/03 08:37:29;;;;;;;2.90;1.87;;;;;;;27.69;69.06;99738.36;1769458;80;21437;-86
2021/07/03 08:39:57;;;;;;;4.05;2.70;;;;;;;27.84;68.01;99739.07;1777159;80;20976;-87
2021/07/03 08:42:23;;;;;;;2.58;2.30;;;;;;;27.93;65.82;99737.99;1777042;80;20975;-85
2021/07/03 08:44:51;;;;;;;4.42;2.52;;;;;;;27.96;65.79;99729.34;1765086;80;20996;-86
2021/07/03 08:47:18;;;;;;;4.35;2.47;;;;;;;27.86;63.66;99733.23;1734623;82;21075;-87
2021/07/03 08:49:49;;;;;;;3.95;2.75;;;;;;;27.83;65.92;99720.64;1703674;82;21353;-86
2021/07/03 08:52:16;;;;;;;3.12;2.05;;;;;;;27.90;64.68;99729.00;1745708;82;21003;-86
2021/07/03 08:54:42;;;;;;;2.45;2.05;;;;;;;27.85;64.29;99716.20;1761547;81;21015;-85
2021/07/03 08:57:11;;;;;;;4.10;2.60;;;;;;;27.89;63.54;99713.36;1756149;81;21572;-86
2021/07/03 08:59:37;;;;;;;2.37;2.17;;;;;;;27.88;62.93;99713.97;1733532;81;21409;-85
2021/07/03 09:02:04;;;;;;;3.65;2.80;;;;;;;27.81;62.82;99721.02;1755671;81;21423;-86
2021/07/03 09:04:40;;;;;;;3.65;2.45;;;;;;;27.69;64.87;99723.53;1755476;81;21060;-87
2021/07/03 09:07:15;;;;;;;2.67;2.40;;;;;;;27.73;65.73;99722.91;1737860;81;21005;-86
2021/07/03 09:09:42;;;;;;;2.87;2.33;;;;;;;27.87;66.56;99716.59;1725396;83;21277;-85
2021/07/03 09:12:11;;;;;;;2.67;2.25;;;;;;;28.04;63.47;99712.03;1725485;83;21518;-85
2021/07/03 09:14:41;;;;;;;2.80;2.60;;;;;;;28.07;60.74;99717.41;1725715;83;21005;-85
2021/07/03 09:17:08;;;;;;;2.77;2.05;;;;;;;28.05;61.46;99714.22;1725749;82;21021;-85
2021/07/03 09:19:36;;;;;;;1.90;1.65;;;;;;;28.05;60.75;99710.01;1660290;83;21024;-85
2021/07/03 09:22:02;;;;;;;2.30;2.10;;;;;;;27.96;58.85;99702.67;1730918;81;21395;-86
2021/07/03 09:24:31;;;;;;;4.65;2.05;;;;;;;27.81;60.63;99698.56;1698943;84;21026;-85
2021/07/03 09:27:02;;;;;;;2.70;2.05;;;;;;;27.63;59.47;99703.55;1710917;83;21520;-85
2021/07/03 09:29:29;;;;;;;2.00;1.80;;;;;;;27.35;60.58;99699.77;1711098;83;29242;-85
2021/07/03 09:31:55;;;;;;;2.45;2.10;;;;;;;27.11;61.71;99696.48;1738095;82;21011;-84
2021/07/03 09:34:22;;;;;;;3.02;1.90;;;;;;;27.01;63.91;99698.15;1742231;82;21066;-85
2021/07/03 09:36:49;;;;;;;2.90;2.17;;;;;;;27.03;62.51;99690.92;1731541;82;21039;-85
2021/07/03 09:39:26;;;;;;;2.00;1.80;;;;;;;26.96;62.08;99693.77;1717869;82;21015;-85
2021/07/03 09:41:52;;;;;;;3.45;2.20;;;;;;;26.90;64.59;99691.19;1716569;83;21296;-85
2021/07/03 09:44:20;;;;;;;3.22;2.17;;;;;;;27.02;65.07;99689.92;1716618;83;21398;-85
2021/07/03 09:46:52;;;;;;;3.40;2.27;;;;;;;27.20;66.05;99685.62;1716496;83;21202;-85
2021/07/03 09:49:25;;;;;;;4.58;2.20;;;;;;;27.42;66.44;99684.86;1731133;81;21047;-85
2021/07/03 09:51:54;;;;;;;4.00;2.52;;;;;;;27.60;64.02;99683.34;1725672;83;21120;-85
2021/07/03 09:54:27;;;;;;;4.05;2.52;;;;;;;27.53;62.96;99688.39;1731541;81;21450;-85
2021/07/03 09:56:59;;;;;;;4.35;2.65;;;;;;;27.38;62.36;99686.30;1701065;83;21103;-85
2021/07/03 09:59:27;;;;;;;3.55;2.35;;;;;;;27.29;64.23;99690.78;1736102;82;21005;-86
2021/07/03 10:01:54;;;;;;;3.65;2.90;;;;;;;27.32;65.02;99691.36;1750801;81;21064;-85
2021/07/03 10:04:20;;;;;;;2.52;2.20;;;;;;;27.37;63.37;99687.50;1708630;82;20985;-86
2021/07/03 10:06:58;;;;;;;4.30;2.87;;;;;;;27.28;62.15;99689.20;1737573;82;21428;-85
2021/07/03 10:09:41;;;;;;;3.55;2.65;;;;;;;27.13;63.16;99682.86;1721324;82;20999;-86
2021/07/03 10:12:11;;;;;;;5.58;3.05;;;;;;;27.14;66.41;99680.23;1725474;83;21067;-85
2021/07/03 10:14:45;;;;;;;5.20;2.72;;;;;;;27.22;65.69;99676.20;1714075;82;21049;-85
2021/07/03 10:17:12;;;;;;;4.80;2.95;;;;;;;27.24;66.17;99676.59;1709054;84;21014;-85
2021/07/03 10:19:40;;;;;;;5.72;2.45;;;;;;;27.29;66.45;99672.55;1708714;84;21423;-85
2021/07/03 10:22:14;;;;;;;5.58;2.70;;;;;;;27.30;65.21;99667.95;1707957;84;21064;-85
2021/07/03 10:24:59;;;;;;;3.70;2.40;;;;;;;27.25;65.15;99669.78;1708240;84;21041;-85
2021/07/03 10:27:28;;;;;;;3.15;2.33;;;;;;;27.31;66.47;99667.34;1722681;82;21005;-85
2021/07/03 10:29:57;;;;;;;3.15;2.40;;;;;;;27.37;65.58;99669.27;1737549;82;21483;-85
2021/07/03 10:32:34;;;;;;;3.47;2.33;;;;;;;27.27;64.87;99672.95;1735492;82;21079;-85
2021/07/03 10:35:16;;;;;;;2.40;2.20;;;;;;;27.19;66.20;99660.99;1737483;81;21005;-85
2021/07/03 10:37:43;;;;;;;3.05;2.47;;;;;;;27.19;65.83;99655.39;1734015;82;21060;-84
2021/07/03 10:40:26;;;;;;;3.72;2.62;;;;;;;27.13;65.92;99659.03;1737759;82;21064;-85
2021/07/03 10:42:54;;;;;;;3.25;2.62;;;;;;;27.14;67.33;99652.20;1738245;82;21021;-85
2021/07/03 10:45:24;;;;;;;3.25;2.15;;;;;;;27.33;67.51;99653.70;1738449;81;21064;-86
2021/07/03 10:47:53;;;;;;;3.58;2.15;;;;;;;27.59;68.49;99659.28;1727613;81;21465;-85
2021/07/03 10:50:22;;;;;;;2.87;2.15;;;;;;;27.80;65.92;99663.91;1707890;84;21038;-85
2021/07/03 10:52:53;;;;;;;3.60;2.47;;;;;;;27.83;65.44;99660.30;1680219;84;21056;-85
2021/07/03 10:55:37;;;;;;;5.40;2.75;;;;;;;27.96;67.02;99656.34;1712935;81;21009;-85
2021/07/03 10:58:20;;;;;;;3.10;2.25;;;;;;;28.02;66.05;99661.72;1725334;83;20994;-85
2021/07/03 11:00:51;;;;;;;4.78;2.83;;;;;;;27.92;66.47;99656.40;1721869;83;21010;-85
2021/07/03 11:03:23;;;;;;;3.70;2.37;;;;;;;27.93;67.14;99655.78;1699697;83;21025;-86
2021/07/03 11:05:50;;;;;;;3.35;2.55;;;;;;;27.98;66.76;99656.73;1731021;81;20974;-84
2021/07/03 11:08:20;;;;;;;3.30;2.77;;;;;;;28.02;67.19;99656.89;1698902;84;21489;-85
2021/07/03 11:10:48;;;;;;;5.10;2.67;;;;;;;28.07;68.29;99660.64;1698256;83;21017;-85
2021/07/03 11:13:20;;;;;;;2.83;2.40;;;;;;;28.17;67.43;99656.73;1717594;83;21020;-84
2021/07/03 11:15:47;;;;;;;3.58;2.65;;;;;;;28.11;67.72;99650.77;1707652;84;21012;-85
2021/07/03 11:18:13;;;;;;;3.65;2.90;;;;;;;28.08;67.64;99658.63;1730364;82;21049;-84
2021/07/03 11:20:43;;;;;;;4.08;2.83;;;;;;;28.10;67.69;99659.01;1730539;82;21002;-84
2021/07/03 11:23:12;;;;;;;4.75;2.85;;;;;;;28.22;67.73;99647.23;1724586;81;21046;-85
2021/07/03 11:25:42;;;;;;;3.05;2.50;;;;;;;28.41;68.47;99646.39;1698278;84;21034;-85
2021/07/03 11:28:14;;;;;;;3.37;2.55;;;;;;;28.61;66.06;99650.78;1722285;81;21465;-84
2021/07/03 11:30:44;;;;;;;4.72;2.60;;;;;;;28.56;66.11;99646.45;1698328;84;21444;-85
2021/07/03 11:33:11;;;;;;;4.00;2.67;;;;;;;28.36;65.60;99649.67;1720257;83;21006;-85